Irving South's Hourly Summary for Tuesday, March 14, 2017
Hour Temp
(f)
RH
(%)
Solar Rad.
(MJ/m2)
Rainfall
(in)
Wind
(mph)
3/14/2017 12:00 AM 47 32 0 0 3.75
3/14/2017 1:00 AM 45 36 0 0 3.61
3/14/2017 2:00 AM 44 40 0 0 1.93
3/14/2017 3:00 AM 43 42 0 0 1.76
3/14/2017 4:00 AM 42 43 0 0 1.21
3/14/2017 5:00 AM 39 49 0 0 0
3/14/2017 6:00 AM 37 56 0 0 0
3/14/2017 7:00 AM 37 60 0 0 0
3/14/2017 8:00 AM 36 62 0.02 0 0
3/14/2017 9:00 AM 40 48 0.45 0 0.86
3/14/2017 10:00 AM 44 43 1.04 0 1.76
3/14/2017 11:00 AM 47 37 1.73 0 2.34
3/14/2017 12:00 PM 50 34 2.41 0 2.45
3/14/2017 1:00 PM 52 31 2.81 0 2.69
3/14/2017 2:00 PM 55 29 2.97 0 2.9
3/14/2017 3:00 PM 58 27 2.81 0 3.04
3/14/2017 4:00 PM 61 25 2.46 0 2.9
3/14/2017 5:00 PM 63 24 1.95 0 2.3
3/14/2017 6:00 PM 64 25 1.32 0 2.07
3/14/2017 7:00 PM 63 26 0.45 0 1.23
3/14/2017 8:00 PM 60 30 0.04 0 2
3/14/2017 9:00 PM 58 34 0 0 1.18
3/14/2017 10:00 PM 57 36 0 0 1.38
3/14/2017 11:00 PM 55 39 0 0 0.81
Data Summary 49 37 20.46 0.00 1.76